Time;durP1;ratioP1;P1;durP2;ratioP2;P2;SDS_P1;SDS_P2;PMS_P1;PMS_P2;Temp;Humidity;BMP_temperature;BMP_pressure;BME280_temperature;BME280_humidity;BME280_pressure;Samples;Min_cycle;Max_cycle;Signal;HPM_P1;HPM_P2
2022/04/01 00:02:05;;;;;;;0.40;0.40;;;1.20;99.90;;;;;;5002822;28;20038;-78
2022/04/01 00:04:31;;;;;;;2.93;1.17;;;1.20;99.90;;;;;;5002114;28;20042;-78
2022/04/01 00:06:57;;;;;;;0.80;0.80;;;1.20;99.90;;;;;;5000424;28;20053;-78
2022/04/01 00:09:23;;;;;;;8.53;1.20;;;1.20;99.90;;;;;;5001701;28;20050;-78
2022/04/01 00:11:49;;;;;;;0.20;0.10;;;1.30;99.90;;;;;;5002554;28;20041;-79
2022/04/01 00:14:15;;;;;;;0.43;0.43;;;1.30;99.90;;;;;;5001443;28;20057;-79
2022/04/01 00:16:40;;;;;;;0.60;0.60;;;1.30;99.90;;;;;;5002172;28;20045;-78
2022/04/01 00:19:06;;;;;;;0.50;0.50;;;1.30;99.90;;;;;;5002425;28;20085;-79
2022/04/01 00:21:32;;;;;;;1.30;0.97;;;1.30;99.90;;;;;;5001164;28;20397;-79
2022/04/01 00:23:57;;;;;;;0.97;0.80;;;1.30;99.90;;;;;;5000373;28;20437;-79
2022/04/01 00:26:23;;;;;;;1.77;1.20;;;1.40;99.90;;;;;;4999998;28;20552;-79
2022/04/01 00:28:48;;;;;;;0.77;0.77;;;1.40;99.90;;;;;;5016536;28;20041;-79
2022/04/01 00:31:14;;;;;;;0.87;0.53;;;1.40;99.90;;;;;;5015701;28;20060;-79
2022/04/01 00:33:40;;;;;;;0.97;0.97;;;1.40;99.90;;;;;;5001357;28;20046;-78
2022/04/01 00:36:05;;;;;;;3.50;0.83;;;1.40;99.90;;;;;;5000854;28;20038;-79
2022/04/01 00:38:31;;;;;;;0.10;0.10;;;1.40;99.90;;;;;;5000557;28;20119;-79
2022/04/01 00:40:58;;;;;;;0.63;0.63;;;1.40;99.90;;;;;;5001398;28;20484;-79
2022/04/01 00:43:29;;;;;;;0.50;0.47;;;1.40;99.90;;;;;;5000707;28;20053;-79
2022/04/01 00:45:54;;;;;;;6.03;0.60;;;1.40;99.90;;;;;;5000418;28;20046;-78
2022/04/01 00:48:20;;;;;;;0.40;0.40;;;1.40;99.90;;;;;;5000955;28;20468;-79
2022/04/01 00:50:46;;;;;;;0.67;0.63;;;1.40;99.90;;;;;;4999397;28;20058;-79
2022/04/01 00:53:12;;;;;;;0.10;0.10;;;1.40;99.90;;;;;;5001365;28;20046;-79
2022/04/01 00:55:37;;;;;;;2.67;1.00;;;1.40;99.90;;;;;;5000102;28;20042;-79
2022/04/01 00:58:05;;;;;;;3.63;0.77;;;1.40;99.90;;;;;;4999434;28;20116;-79
2022/04/01 01:00:31;;;;;;;0.73;0.73;;;1.40;99.90;;;;;;4983119;28;20050;-79
2022/04/01 01:02:57;;;;;;;5.93;0.80;;;1.40;99.90;;;;;;5002639;28;20100;-79
2022/04/01 01:05:23;;;;;;;0.20;0.20;;;1.40;99.90;;;;;;5003029;28;20492;-79
2022/04/01 01:07:49;;;;;;;0.23;0.13;;;1.40;99.90;;;;;;5003821;28;20038;-79
2022/04/01 01:10:18;;;;;;;1.47;0.70;;;1.50;99.90;;;;;;5004157;28;20116;-79
2022/04/01 01:12:44;;;;;;;0.40;0.40;;;1.50;99.90;;;;;;5004290;28;20401;-79
2022/04/01 01:15:16;;;;;;;0.73;0.70;;;1.50;99.90;;;;;;5002840;28;20065;-79
2022/04/01 01:17:41;;;;;;;0.10;0.10;;;1.50;99.90;;;;;;5004294;28;20046;-79
2022/04/01 01:20:12;;;;;;;0.27;0.27;;;1.50;99.90;;;;;;5003423;28;20366;-79
2022/04/01 01:22:49;;;;;;;0.40;0.40;;;1.50;99.90;;;;;;5004838;28;20064;-79
2022/04/01 01:25:15;;;;;;;1.13;1.03;;;1.50;99.90;;;;;;5003491;28;20653;-79
2022/04/01 01:27:42;;;;;;;0.73;0.73;;;1.50;99.90;;;;;;5004604;28;20451;-79
2022/04/01 01:30:09;;;;;;;0.10;0.00;;;1.50;99.90;;;;;;5004792;28;20077;-79
2022/04/01 01:32:35;;;;;;;1.07;0.47;;;1.50;99.90;;;;;;5004317;28;20069;-79
2022/04/01 01:35:02;;;;;;;0.40;0.40;;;1.50;99.90;;;;;;5004437;28;20412;-79
2022/04/01 01:37:28;;;;;;;0.10;0.10;;;1.50;99.90;;;;;;5002805;28;20346;-80
2022/04/01 01:39:54;;;;;;;0.93;0.93;;;1.50;99.90;;;;;;5004196;28;20076;-79
2022/04/01 01:42:19;;;;;;;0.30;0.30;;;1.50;99.90;;;;;;5004037;28;20052;-80
2022/04/01 01:44:45;;;;;;;1.70;0.37;;;1.50;99.90;;;;;;5002539;28;20325;-80
2022/04/01 01:47:11;;;;;;;3.73;1.60;;;1.50;99.90;;;;;;5004448;28;20132;-79
2022/04/01 01:49:36;;;;;;;0.30;0.30;;;1.60;99.90;;;;;;5003830;28;20125;-79
2022/04/01 01:54:49;;;;;;;0.40;0.40;;;1.60;99.90;;;;;;5003224;28;20046;-80
2022/04/01 01:57:17;;;;;;;0.20;0.20;;;1.60;99.90;;;;;;5001712;28;20068;-80
2022/04/01 01:59:44;;;;;;;1.00;1.00;;;1.60;99.90;;;;;;5003631;28;20077;-80
2022/04/01 02:02:10;;;;;;;0.67;0.67;;;1.60;99.90;;;;;;5002316;28;20071;-79
2022/04/01 02:04:39;;;;;;;0.63;0.37;;;1.60;99.90;;;;;;5003638;28;20038;-80
2022/04/01 02:07:05;;;;;;;0.80;0.80;;;1.60;99.90;;;;;;5003007;28;20443;-80
2022/04/01 02:09:31;;;;;;;4.03;0.67;;;1.60;99.90;;;;;;5003541;28;20041;-80
2022/04/01 02:11:57;;;;;;;0.40;0.40;;;1.70;99.90;;;;;;5018451;28;20133;-80
2022/04/01 02:14:23;;;;;;;0.57;0.57;;;1.70;99.90;;;;;;5001317;28;20053;-80
2022/04/01 02:16:48;;;;;;;0.80;0.80;;;1.70;99.90;;;;;;5002122;28;20576;-79
2022/04/01 02:19:20;;;;;;;0.33;0.33;;;1.70;99.90;;;;;;5003135;28;20034;-80
2022/04/01 02:21:51;;;;;;;0.90;0.68;;;1.70;99.90;;;;;;5002677;28;20440;-80
2022/04/01 02:24:17;;;;;;;1.93;1.23;;;1.70;99.90;;;;;;5004000;28;20022;-80
2022/04/01 02:26:44;;;;;;;6.07;1.10;;;1.70;99.90;;;;;;5002596;28;20045;-80
2022/04/01 02:29:10;;;;;;;1.10;0.97;;;1.70;99.90;;;;;;5002673;28;20046;-80
2022/04/01 02:31:35;;;;;;;0.50;0.50;;;1.70;99.90;;;;;;5003302;28;20045;-80
2022/04/01 02:34:03;;;;;;;0.50;0.50;;;1.70;99.90;;;;;;5001810;28;20042;-80
2022/04/01 02:36:28;;;;;;;0.10;0.10;;;1.70;99.90;;;;;;5001133;28;20094;-80
2022/04/01 02:38:54;;;;;;;2.90;0.53;;;1.70;99.90;;;;;;5002862;28;20506;-80
2022/04/01 02:41:20;;;;;;;0.87;0.87;;;1.70;99.90;;;;;;5001208;28;20421;-80
2022/04/01 02:43:46;;;;;;;0.53;0.53;;;1.70;99.90;;;;;;5004001;28;20080;-81
2022/04/01 02:46:12;;;;;;;0.33;0.33;;;1.70;99.90;;;;;;5000358;28;20195;-80
2022/04/01 02:48:38;;;;;;;0.47;0.47;;;1.70;99.90;;;;;;5001024;28;20072;-80
2022/04/01 02:51:04;;;;;;;0.10;0.10;;;1.80;99.90;;;;;;5002037;28;20133;-80
2022/04/01 02:53:30;;;;;;;0.63;0.60;;;1.80;99.90;;;;;;5002217;28;20046;-81
2022/04/01 02:55:56;;;;;;;0.83;0.83;;;1.80;99.90;;;;;;5002558;28;20546;-80
2022/04/01 02:58:21;;;;;;;0.67;0.67;;;1.80;99.90;;;;;;5002023;28;20500;-80
2022/04/01 03:00:47;;;;;;;0.60;0.43;;;1.70;99.90;;;;;;5002997;28;20037;-80
2022/04/01 03:03:13;;;;;;;1.50;0.87;;;1.80;99.90;;;;;;5001949;28;20093;-80
2022/04/01 03:05:42;;;;;;;2.57;1.00;;;1.80;99.90;;;;;;5001567;28;20069;-80
2022/04/01 03:08:09;;;;;;;0.53;0.53;;;1.80;99.90;;;;;;5003134;28;20069;-81
2022/04/01 03:10:37;;;;;;;0.20;0.20;;;1.80;99.90;;;;;;5001426;28;20091;-80
2022/04/01 03:13:04;;;;;;;0.60;0.53;;;1.80;99.90;;;;;;5002239;28;20081;-80
2022/04/01 03:15:30;;;;;;;6.70;0.60;;;1.80;99.90;;;;;;5002500;28;20078;-80
2022/04/01 03:17:57;;;;;;;0.37;0.37;;;1.80;99.90;;;;;;5001962;28;20084;-80
2022/04/01 03:20:23;;;;;;;2.93;0.77;;;1.80;99.90;;;;;;5001060;28;20125;-80
2022/04/01 03:22:50;;;;;;;3.03;1.10;;;1.80;99.90;;;;;;5002508;28;20046;-80
2022/04/01 03:25:20;;;;;;;0.83;0.83;;;1.80;99.90;;;;;;5000611;28;20125;-80
2022/04/01 03:27:47;;;;;;;3.17;1.03;;;1.80;99.90;;;;;;5002084;28;20271;-80
2022/04/01 03:30:13;;;;;;;1.33;1.23;;;1.80;99.90;;;;;;5001877;28;20038;-80
2022/04/01 03:32:40;;;;;;;6.23;0.73;;;1.80;99.90;;;;;;5000860;28;20429;-80
2022/04/01 03:35:08;;;;;;;0.33;0.23;;;1.80;99.90;;;;;;5001323;28;20389;-80
2022/04/01 03:37:34;;;;;;;0.83;0.30;;;1.80;99.90;;;;;;5017338;28;20081;-80
2022/04/01 03:40:00;;;;;;;1.67;1.07;;;1.80;99.90;;;;;;5001815;28;20325;-80
2022/04/01 03:42:31;;;;;;;14.83;1.03;;;1.90;99.90;;;;;;5001633;28;20050;-79
2022/04/01 03:45:01;;;;;;;0.40;0.27;;;1.90;99.90;;;;;;5001949;28;20496;-79
2022/04/01 03:47:45;;;;;;;1.03;0.93;;;1.90;99.90;;;;;;5002259;28;20053;-79
2022/04/01 03:50:12;;;;;;;0.70;0.70;;;1.80;99.90;;;;;;5000127;28;20577;-80
2022/04/01 03:52:38;;;;;;;0.80;0.70;;;1.80;99.90;;;;;;4999865;28;20128;-79
2022/04/01 03:55:08;;;;;;;2.53;0.90;;;1.80;99.90;;;;;;5001790;28;20041;-80
2022/04/01 03:57:39;;;;;;;0.17;0.17;;;1.90;99.90;;;;;;5002013;28;20046;-80
2022/04/01 04:00:14;;;;;;;0.53;0.53;;;1.90;99.90;;;;;;5000584;28;20417;-79
2022/04/01 04:02:40;;;;;;;0.30;0.30;;;1.90;99.90;;;;;;4984375;28;20104;-80
2022/04/01 04:05:07;;;;;;;1.20;0.20;;;1.90;99.90;;;;;;5000786;28;20053;-80
2022/04/01 04:07:33;;;;;;;3.73;0.83;;;1.90;99.90;;;;;;5001744;28;20056;-80
2022/04/01 04:09:59;;;;;;;0.20;0.20;;;1.90;99.90;;;;;;5001077;28;20418;-80
2022/04/01 04:12:27;;;;;;;0.40;0.40;;;1.90;99.90;;;;;;5016493;28;20066;-80
2022/04/01 04:14:53;;;;;;;0.33;0.33;;;1.90;99.90;;;;;;5001685;28;20061;-80
2022/04/01 04:17:25;;;;;;;0.13;0.07;;;1.90;99.90;;;;;;5000814;28;20042;-80
2022/04/01 04:20:04;;;;;;;2.17;0.57;;;2.00;99.90;;;;;;4998992;28;20046;-80
2022/04/01 04:22:35;;;;;;;0.20;0.20;;;1.90;99.90;;;;;;5000966;28;20081;-80
2022/04/01 04:25:10;;;;;;;2.10;0.60;;;2.00;99.90;;;;;;5001738;28;20456;-80
2022/04/01 04:27:40;;;;;;;9.23;0.73;;;2.00;99.90;;;;;;5000220;28;20218;-80
2022/04/01 04:30:08;;;;;;;4.83;1.43;;;2.00;99.90;;;;;;5000171;28;20081;-79
2022/04/01 04:32:51;;;;;;;0.17;0.17;;;2.00;99.90;;;;;;5001441;28;20500;-80
2022/04/01 04:35:20;;;;;;;;;;;2.00;99.90;;;;;;4999618;28;20049;-80
2022/04/01 04:37:46;;;;;;;0.83;0.83;;;2.00;99.90;;;;;;5001505;28;19922;-80
2022/04/01 04:40:15;;;;;;;3.90;0.60;;;2.00;99.90;;;;;;5004582;28;20077;-80
2022/04/01 04:42:51;;;;;;;0.13;0.13;;;2.00;99.90;;;;;;5005330;28;20042;-80
2022/04/01 04:45:17;;;;;;;0.20;0.20;;;2.00;99.90;;;;;;5005024;28;20034;-80
2022/04/01 04:47:43;;;;;;;9.40;1.03;;;2.00;99.90;;;;;;5005337;28;20148;-80
2022/04/01 04:50:09;;;;;;;0.60;0.60;;;2.00;99.90;;;;;;5003556;28;20334;-79
2022/04/01 04:52:38;;;;;;;0.23;0.23;;;2.00;99.90;;;;;;5005097;28;20100;-80
2022/04/01 04:55:07;;;;;;;4.43;0.77;;;2.00;99.90;;;;;;5005898;28;20228;-80
2022/04/01 04:57:35;;;;;;;0.63;0.63;;;2.00;99.90;;;;;;5004605;28;20053;-80
2022/04/01 05:00:01;;;;;;;11.87;0.73;;;2.00;99.90;;;;;;5003317;28;20038;-79
2022/04/01 05:03:06;;;;;;;2.70;1.13;;;2.00;99.90;;;;;;5004780;28;20045;-81
2022/04/01 05:05:49;;;;;;;2.47;1.17;;;2.10;99.90;;;;;;5003800;28;20026;-79
2022/04/01 05:08:44;;;;;;;1.88;1.13;;;2.10;99.90;;;;;;5004480;28;20137;-79
2022/04/01 05:11:34;;;;;;;0.53;0.53;;;2.00;99.90;;;;;;5002400;28;20445;-79
2022/04/01 05:14:04;;;;;;;0.97;0.77;;;2.00;99.90;;;;;;5004438;28;20049;-79
2022/04/01 05:16:50;;;;;;;0.70;0.70;;;2.00;99.90;;;;;;5004800;28;20054;-79
2022/04/01 05:19:24;;;;;;;0.70;0.70;;;2.10;99.90;;;;;;5004101;28;20026;-79
2022/04/01 05:22:01;;;;;;;0.47;0.33;;;2.00;99.90;;;;;;5003185;28;20050;-79
2022/04/01 05:24:35;;;;;;;0.93;0.93;;;2.10;99.90;;;;;;5004239;28;20560;-79
2022/04/01 05:27:03;;;;;;;1.73;1.33;;;2.10;99.90;;;;;;5004259;28;20076;-79
2022/04/01 05:29:36;;;;;;;1.65;1.35;;;2.10;99.90;;;;;;5003826;28;20042;-79
2022/04/01 05:32:07;;;;;;;0.40;0.27;;;2.10;99.90;;;;;;5004976;28;20114;-79
2022/04/01 05:34:43;;;;;;;0.95;0.95;;;2.10;99.90;;;;;;5002080;28;20125;-78
2022/04/01 05:37:09;;;;;;;0.63;0.63;;;2.10;99.90;;;;;;5004479;28;20038;-78
2022/04/01 05:39:37;;;;;;;1.10;0.77;;;2.10;99.90;;;;;;5003472;28;20369;-79
2022/04/01 05:42:05;;;;;;;4.97;0.90;;;2.10;99.90;;;;;;5002604;28;20058;-78
2022/04/01 05:44:32;;;;;;;3.93;1.03;;;2.10;99.90;;;;;;5000578;28;20037;-78
2022/04/01 05:46:58;;;;;;;1.30;1.20;;;2.10;99.90;;;;;;5005677;28;20042;-78
2022/04/01 05:49:25;;;;;;;0.33;0.33;;;2.10;99.90;;;;;;5003452;28;20172;-78
2022/04/01 05:51:52;;;;;;;1.77;1.00;;;2.10;99.90;;;;;;5008837;28;20587;-78
2022/04/01 05:54:19;;;;;;;0.33;0.23;;;2.10;99.90;;;;;;4999243;28;20845;-77
2022/04/01 05:56:48;;;;;;;0.33;0.33;;;2.10;99.90;;;;;;5004653;28;20096;-78
2022/04/01 05:59:19;;;;;;;0.63;0.60;;;2.10;99.90;;;;;;5003085;28;20042;-78
2022/04/01 06:02:02;;;;;;;0.57;0.30;;;2.10;99.90;;;;;;5002293;28;20041;-79
2022/04/01 06:04:45;;;;;;;0.70;0.70;;;2.10;99.90;;;;;;5003289;28;20046;-78
2022/04/01 06:07:17;;;;;;;0.47;0.47;;;2.10;99.90;;;;;;5002564;28;20046;-78
2022/04/01 06:10:09;;;;;;;0.67;0.67;;;2.20;99.90;;;;;;5004062;28;20137;-78
2022/04/01 06:12:49;;;;;;;2.65;0.50;;;2.10;99.90;;;;;;5003333;28;20059;-78
2022/04/01 06:15:26;;;;;;;1.90;0.87;;;2.20;99.90;;;;;;5003254;28;20112;-78
2022/04/01 06:18:19;;;;;;;1.53;1.07;;;2.20;99.90;;;;;;5003570;28;20527;-78
2022/04/01 06:20:47;;;;;;;0.50;0.50;;;2.10;99.90;;;;;;5001648;28;20057;-78
2022/04/01 06:23:35;;;;;;;0.70;0.50;;;2.20;99.90;;;;;;5002112;28;20041;-78
2022/04/01 06:26:00;;;;;;;0.20;0.20;;;2.10;99.90;;;;;;5003390;28;20049;-78
2022/04/01 06:28:33;;;;;;;1.10;1.03;;;2.20;99.90;;;;;;5003846;28;20053;-78
2022/04/01 06:31:06;;;;;;;0.53;0.53;;;2.20;99.90;;;;;;5003759;28;20524;-77
2022/04/01 06:34:01;;;;;;;0.97;0.17;;;2.20;99.90;;;;;;5003402;28;20053;-77
2022/04/01 06:36:38;;;;;;;2.60;0.33;;;2.20;99.90;;;;;;5001249;28;20085;-85
2022/04/01 06:39:08;;;;;;;11.90;1.80;;;2.20;99.90;;;;;;5002400;28;20069;-89
2022/04/01 06:41:47;;;;;;;0.30;0.30;;;2.20;99.90;;;;;;4998386;28;21492;-92
2022/04/01 06:44:13;;;;;;;0.57;0.27;;;2.20;99.90;;;;;;4992071;28;20050;-84
2022/04/01 06:46:39;;;;;;;1.37;1.23;;;2.20;99.90;;;;;;5004282;28;20151;-76
2022/04/01 06:49:08;;;;;;;1.07;0.83;;;2.20;99.90;;;;;;5006452;28;20092;-90
2022/04/01 06:51:38;;;;;;;0.73;0.67;;;2.20;99.90;;;;;;5000208;28;20046;-88
2022/04/01 06:54:05;;;;;;;0.63;0.63;;;2.20;99.90;;;;;;5002966;28;20526;-87
2022/04/01 06:56:30;;;;;;;0.67;0.67;;;2.20;99.90;;;;;;5003846;28;20068;-88
2022/04/01 06:58:56;;;;;;;0.27;0.27;;;2.30;99.90;;;;;;5002609;28;20077;-89
2022/04/01 07:01:22;;;;;;;0.27;0.27;;;2.30;99.90;;;;;;5003183;28;20104;-90
2022/04/01 07:03:47;;;;;;;0.10;0.10;;;2.30;99.90;;;;;;5002721;28;20042;-83
2022/04/01 07:06:13;;;;;;;0.10;0.10;;;2.30;99.90;;;;;;5001932;28;20081;-88
2022/04/01 07:08:39;;;;;;;2.73;0.80;;;2.30;99.90;;;;;;5001221;28;20030;-83
2022/04/01 07:11:04;;;;;;;0.50;0.50;;;2.30;99.90;;;;;;5003725;28;20049;-80
2022/04/01 07:13:31;;;;;;;1.03;0.93;;;2.30;99.90;;;;;;5001016;28;20054;-87
2022/04/01 07:15:57;;;;;;;12.83;1.73;;;2.30;99.90;;;;;;5002822;28;20500;-78
2022/04/01 07:18:23;;;;;;;0.43;0.37;;;2.40;99.90;;;;;;5002713;28;20049;-77
2022/04/01 07:20:48;;;;;;;0.87;0.20;;;2.30;99.90;;;;;;5000645;28;20091;-81
2022/04/01 07:23:15;;;;;;;0.40;0.40;;;2.40;99.90;;;;;;4999105;28;20100;-79
2022/04/01 07:25:40;;;;;;;2.90;0.50;;;2.40;99.90;;;;;;5002333;28;20775;-78
2022/04/01 07:28:09;;;;;;;0.60;0.53;;;2.40;99.90;;;;;;5004484;28;20056;-78
2022/04/01 07:30:34;;;;;;;0.40;0.40;;;2.40;99.90;;;;;;5022041;28;20049;-78
2022/04/01 07:33:00;;;;;;;0.23;0.23;;;2.40;99.90;;;;;;5022160;28;20571;-79
2022/04/01 07:35:26;;;;;;;14.73;0.60;;;2.40;99.90;;;;;;5019295;28;20420;-79
2022/04/01 07:37:52;;;;;;;1.53;1.03;;;2.50;99.90;;;;;;5001446;28;20057;-80
2022/04/01 07:40:20;;;;;;;0.83;0.83;;;2.50;99.90;;;;;;5002094;28;20042;-82
2022/04/01 07:42:48;;;;;;;0.40;0.40;;;2.50;99.90;;;;;;5002079;28;20037;-79
2022/04/01 07:45:14;;;;;;;0.53;0.40;;;2.50;99.90;;;;;;5002320;28;20131;-79
2022/04/01 07:47:44;;;;;;;0.87;0.73;;;2.50;99.90;;;;;;5002572;28;20073;-79
2022/04/01 07:50:10;;;;;;;0.77;0.77;;;2.60;99.90;;;;;;5000950;28;20160;-78
2022/04/01 07:52:40;;;;;;;1.33;0.97;;;2.60;99.90;;;;;;5002753;28;20050;-78
2022/04/01 07:55:07;;;;;;;0.40;0.40;;;2.60;99.90;;;;;;5001598;28;20049;-77
2022/04/01 07:57:33;;;;;;;0.30;0.30;;;2.60;99.90;;;;;;5001154;28;20038;-81
2022/04/01 07:59:59;;;;;;;2.07;0.93;;;2.70;99.90;;;;;;5000879;28;20049;-81
2022/04/01 08:02:25;;;;;;;0.30;0.30;;;2.70;99.90;;;;;;5000855;28;20125;-78
2022/04/01 08:04:50;;;;;;;6.93;1.23;;;2.70;99.90;;;;;;4998720;28;20504;-78
2022/04/01 08:07:16;;;;;;;5.73;1.13;;;2.80;99.90;;;;;;5001232;28;20507;-79
2022/04/01 08:09:43;;;;;;;0.30;0.30;;;2.80;99.90;;;;;;5001117;28;20273;-81
2022/04/01 08:12:09;;;;;;;2.07;1.03;;;2.80;99.90;;;;;;4999982;28;20053;-78
2022/04/01 08:14:37;;;;;;;2.57;0.83;;;2.80;99.90;;;;;;4975977;28;20266;-81
2022/04/01 08:17:04;;;;;;;3.00;1.17;;;2.80;99.90;;;;;;4981974;28;20050;-81
2022/04/01 08:19:30;;;;;;;0.40;0.37;;;2.90;99.90;;;;;;4999817;28;20033;-83
2022/04/01 08:21:57;;;;;;;0.63;0.63;;;2.90;99.90;;;;;;5001011;28;20436;-84
2022/04/01 08:24:24;;;;;;;0.33;0.33;;;2.90;99.90;;;;;;4979584;28;20131;-83
2022/04/01 08:26:50;;;;;;;0.63;0.63;;;3.00;99.90;;;;;;4980589;28;20043;-81
2022/04/01 08:29:16;;;;;;;0.43;0.43;;;3.00;99.90;;;;;;4979442;28;20043;-83
2022/04/01 08:31:42;;;;;;;2.13;1.33;;;3.00;99.90;;;;;;4998165;28;20060;-85
2022/04/01 08:34:07;;;;;;;0.83;0.67;;;3.00;99.90;;;;;;5000457;28;20039;-82
2022/04/01 08:36:33;;;;;;;1.03;0.90;;;3.10;99.90;;;;;;5000291;28;20045;-81
2022/04/01 08:38:58;;;;;;;0.43;0.20;;;3.10;99.90;;;;;;4999696;28;20133;-80
2022/04/01 08:41:24;;;;;;;0.67;0.67;;;3.10;99.90;;;;;;4999251;28;20062;-81
2022/04/01 08:43:51;;;;;;;0.10;0.10;;;3.10;99.90;;;;;;4999575;28;20108;-84
2022/04/01 08:46:18;;;;;;;0.70;0.70;;;3.20;99.90;;;;;;5000986;28;20046;-83
2022/04/01 08:48:44;;;;;;;3.00;1.03;;;3.20;99.90;;;;;;4999992;28;20042;-76
2022/04/01 08:51:11;;;;;;;1.17;0.23;;;3.10;99.90;;;;;;4999585;28;20088;-77
2022/04/01 08:53:38;;;;;;;1.60;1.50;;;3.20;99.90;;;;;;5001331;28;20458;-76
2022/04/01 08:56:05;;;;;;;0.87;0.87;;;3.20;99.90;;;;;;5000155;28;20038;-76
2022/04/01 08:58:30;;;;;;;0.63;0.50;;;3.20;99.90;;;;;;4999551;28;20081;-76
2022/04/01 09:00:58;;;;;;;0.47;0.47;;;3.10;99.90;;;;;;5001017;28;20464;-75
2022/04/01 09:03:24;;;;;;;2.77;1.03;;;3.10;99.90;;;;;;5000610;28;20461;-76
2022/04/01 09:05:57;;;;;;;0.53;0.40;;;3.10;99.90;;;;;;5000017;28;20041;-76
2022/04/01 09:08:33;;;;;;;0.60;0.60;;;3.10;99.90;;;;;;5000684;28;20038;-75
2022/04/01 09:11:16;;;;;;;0.63;0.63;;;3.00;99.90;;;;;;4999810;28;20053;-75
2022/04/01 09:13:48;;;;;;;1.00;0.83;;;3.00;99.90;;;;;;4998959;28;20113;-75
2022/04/01 09:16:24;;;;;;;5.97;1.30;;;3.00;99.90;;;;;;5000447;28;20050;-83
2022/04/01 09:18:53;;;;;;;1.73;1.00;;;2.90;99.90;;;;;;5000684;28;20042;-78
2022/04/01 09:21:37;;;;;;;1.10;1.07;;;2.90;99.90;;;;;;4998435;28;20053;-78
2022/04/01 09:24:03;;;;;;;0.20;0.20;;;2.90;99.90;;;;;;5001619;28;20432;-79
2022/04/01 09:26:40;;;;;;;1.00;0.60;;;2.90;99.90;;;;;;5003674;28;20061;-79
2022/04/01 09:29:09;;;;;;;0.73;0.73;;;2.90;99.90;;;;;;5004539;28;20061;-79
2022/04/01 09:31:38;;;;;;;1.73;1.27;;;2.90;99.90;;;;;;5002656;28;20677;-79
2022/04/01 09:34:06;;;;;;;3.10;1.13;;;2.80;99.90;;;;;;5002144;28;20550;-79
2022/04/01 09:36:33;;;;;;;0.37;0.37;;;2.80;99.90;;;;;;5004297;28;20052;-79
2022/04/01 09:39:08;;;;;;;0.63;0.63;;;2.80;99.90;;;;;;5003652;28;20037;-79
2022/04/01 09:41:38;;;;;;;0.47;0.47;;;2.90;99.90;;;;;;5004518;28;20647;-78
2022/04/01 09:44:13;;;;;;;1.20;1.07;;;2.90;99.90;;;;;;5003709;28;20042;-79
2022/04/01 09:46:42;;;;;;;0.40;0.40;;;2.90;99.90;;;;;;5003704;28;20030;-77
2022/04/01 09:49:08;;;;;;;0.57;0.43;;;2.90;99.90;;;;;;5003318;28;20258;-79
2022/04/01 09:51:34;;;;;;;0.50;0.50;;;2.90;99.90;;;;;;5004110;28;20073;-79
2022/04/01 09:54:04;;;;;;;1.00;1.00;;;2.90;99.90;;;;;;5003433;28;20578;-77
2022/04/01 09:56:40;;;;;;;0.40;0.40;;;2.90;99.90;;;;;;5003347;28;20723;-82
2022/04/01 09:59:07;;;;;;;1.07;1.07;;;2.90;99.90;;;;;;5004246;28;20125;-79
2022/04/01 10:01:35;;;;;;;1.00;0.90;;;3.00;99.90;;;;;;5002895;28;20511;-80
2022/04/01 10:04:02;;;;;;;0.83;0.83;;;3.00;99.90;;;;;;5001335;28;20041;-80
2022/04/01 10:06:30;;;;;;;2.97;2.57;;;3.00;99.90;;;;;;5003562;28;20084;-79
2022/04/01 10:08:59;;;;;;;5.03;1.20;;;3.00;99.90;;;;;;5003992;28;20045;-80
2022/04/01 10:11:26;;;;;;;0.60;0.60;;;3.00;99.90;;;;;;5003465;28;20038;-74
2022/04/01 10:13:53;;;;;;;0.77;0.77;;;3.10;99.90;;;;;;5004283;28;20125;-82
2022/04/01 10:16:20;;;;;;;15.17;1.53;;;3.00;99.90;;;;;;5004139;28;20135;-82
2022/04/01 10:18:48;;;;;;;0.30;0.30;;;3.00;99.90;;;;;;5003344;28;20791;-82
2022/04/01 10:21:17;;;;;;;1.23;0.83;;;3.00;99.90;;;;;;5003752;28;20045;-78
2022/04/01 10:23:55;;;;;;;0.43;0.43;;;3.00;99.90;;;;;;5003077;28;20053;-80
2022/04/01 10:26:21;;;;;;;0.53;0.50;;;3.00;99.90;;;;;;5002653;28;20049;-78
2022/04/01 10:28:50;;;;;;;3.23;0.63;;;3.00;99.90;;;;;;5003680;28;20034;-78
2022/04/01 10:31:16;;;;;;;0.90;0.90;;;3.00;99.90;;;;;;5001956;28;20054;-78
2022/04/01 10:33:42;;;;;;;0.10;0.10;;;3.10;99.90;;;;;;5002225;28;20535;-78
2022/04/01 10:36:26;;;;;;;0.97;0.97;;;3.10;99.90;;;;;;5004056;28;20054;-78
2022/04/01 10:39:05;;;;;;;1.03;0.83;;;3.10;99.90;;;;;;5001778;28;20068;-78
2022/04/01 10:41:31;;;;;;;0.10;0.10;;;3.10;99.90;;;;;;5003388;28;20684;-79
2022/04/01 10:43:58;;;;;;;2.33;1.30;;;3.10;99.90;;;;;;5003950;28;20053;-79
2022/04/01 10:46:24;;;;;;;0.60;0.60;;;3.00;99.90;;;;;;5000117;28;20485;-79
2022/04/01 10:52:18;;;;;;;1.70;0.97;;;3.00;99.90;;;;;;5001073;28;20090;-78
2022/04/01 10:54:45;;;;;;;1.37;1.10;;;3.00;99.90;;;;;;4999156;28;20484;-84
2022/04/01 10:57:14;;;;;;;1.10;0.67;;;3.10;99.90;;;;;;5001314;28;20049;-85
2022/04/01 10:59:43;;;;;;;0.90;0.70;;;3.00;99.90;;;;;;5008147;28;20049;-85
2022/04/01 11:02:13;;;;;;;0.73;0.73;;;3.00;99.90;;;;;;5004705;28;20100;-78
2022/04/01 11:04:43;;;;;;;1.53;0.33;;;2.90;99.90;;;;;;5002549;28;20145;-76
2022/04/01 11:07:11;;;;;;;1.90;0.77;;;3.00;99.90;;;;;;5002811;28;20041;-77
2022/04/01 11:09:47;;;;;;;0.40;0.40;;;3.00;99.90;;;;;;5003206;28;20038;-77
2022/04/01 11:12:19;;;;;;;2.83;0.67;;;3.00;99.90;;;;;;5000599;28;20038;-78
2022/04/01 11:14:54;;;;;;;0.30;0.30;;;3.00;99.90;;;;;;4985156;28;20584;-78
2022/04/01 11:17:21;;;;;;;0.30;0.30;;;3.10;99.90;;;;;;5002616;28;20512;-78
2022/04/01 11:20:00;;;;;;;0.23;0.23;;;3.10;99.90;;;;;;5002382;28;20492;-78
2022/04/01 11:22:40;;;;;;;0.80;0.80;;;3.10;99.90;;;;;;5001505;28;20057;-78
2022/04/01 11:25:08;;;;;;;3.73;1.10;;;3.00;99.90;;;;;;5001626;28;20049;-78
2022/04/01 11:27:34;;;;;;;1.20;0.73;;;3.00;99.90;;;;;;5001862;28;20045;-78
2022/04/01 11:30:15;;;;;;;0.30;0.30;;;3.00;99.90;;;;;;5001438;28;20104;-78
2022/04/01 11:32:44;;;;;;;0.60;0.60;;;3.00;99.90;;;;;;5000730;28;20057;-78
2022/04/01 11:35:11;;;;;;;0.63;0.63;;;3.10;99.90;;;;;;4996315;28;20090;-81
2022/04/01 11:37:40;;;;;;;0.57;0.57;;;3.10;99.90;;;;;;4980704;28;20061;-79
2022/04/01 11:40:11;;;;;;;0.30;0.30;;;3.10;99.90;;;;;;4984323;28;20116;-79
2022/04/01 11:42:58;;;;;;;2.30;1.17;;;3.20;99.90;;;;;;4999375;28;20335;-85
2022/04/01 11:45:26;;;;;;;5.40;1.23;;;3.20;99.90;;;;;;5004728;28;20397;-84
2022/04/01 11:47:52;;;;;;;1.03;0.97;;;3.20;99.90;;;;;;5000993;28;20064;-87
2022/04/01 11:50:20;;;;;;;1.70;1.00;;;3.20;99.90;;;;;;4998631;28;20045;-80
2022/04/01 11:52:52;;;;;;;1.10;0.57;;;3.30;99.90;;;;;;5001464;28;20377;-82
2022/04/01 11:55:21;;;;;;;0.97;0.97;;;3.30;99.90;;;;;;4999556;28;20045;-83
2022/04/01 11:57:48;;;;;;;2.90;1.07;;;3.30;99.90;;;;;;5001238;28;20555;-84
2022/04/01 12:00:18;;;;;;;0.30;0.20;;;3.40;99.90;;;;;;5000475;28;20133;-87
2022/04/01 12:02:47;;;;;;;1.13;0.53;;;3.40;99.90;;;;;;5001335;28;20338;-85
2022/04/01 12:05:14;;;;;;;4.10;1.20;;;3.40;99.90;;;;;;4998399;28;20492;-87
2022/04/01 12:10:27;;;;;;;0.70;0.70;;;3.50;99.90;;;;;;5000292;28;20566;-87
2022/04/01 12:12:55;;;;;;;2.33;1.10;;;3.50;99.90;;;;;;4999923;28;20404;-88
2022/04/01 12:15:41;;;;;;;1.80;1.37;;;3.50;99.90;;;;;;4961894;28;20083;-86
2022/04/01 12:18:10;;;;;;;0.83;0.60;;;3.40;99.90;;;;;;4961080;28;20250;-83
2022/04/01 12:20:43;;;;;;;0.73;0.73;;;3.50;99.90;;;;;;4959935;28;20070;-80
2022/04/01 12:23:09;;;;;;;1.10;0.97;;;3.50;99.90;;;;;;4961769;28;20082;-81
2022/04/01 12:25:37;;;;;;;1.00;0.80;;;3.60;99.90;;;;;;4961459;28;20552;-85
2022/04/01 12:28:08;;;;;;;0.73;0.73;;;3.60;99.90;;;;;;4961875;28;20093;-83
2022/04/01 12:30:39;;;;;;;2.57;0.67;;;3.60;99.90;;;;;;4960503;28;20043;-85
2022/04/01 12:33:07;;;;;;;0.93;0.93;;;3.70;99.90;;;;;;4959484;28;20686;-84
2022/04/01 12:36:08;;;;;;;0.37;0.37;;;3.70;99.90;;;;;;4959946;28;20027;-82
2022/04/01 12:38:58;;;;;;;0.20;0.20;;;3.80;99.90;;;;;;4960215;28;20138;-81
2022/04/01 12:41:23;;;;;;;0.37;0.37;;;3.80;99.90;;;;;;4960345;28;20465;-83
2022/04/01 12:43:52;;;;;;;0.33;0.33;;;3.80;99.90;;;;;;4961945;28;20046;-85
2022/04/01 12:46:19;;;;;;;2.17;0.73;;;3.80;99.90;;;;;;4960627;28;20046;-87
2022/04/01 12:48:55;;;;;;;0.53;0.40;;;3.80;99.90;;;;;;4959037;28;20042;-84
2022/04/01 12:51:30;;;;;;;0.30;0.30;;;3.80;99.90;;;;;;4943629;28;20050;-86
2022/04/01 12:54:04;;;;;;;0.27;0.27;;;3.70;99.90;;;;;;4961622;28;20053;-86
2022/04/01 12:56:38;;;;;;;0.32;0.32;;;3.80;99.90;;;;;;4961261;28;20043;-85
2022/04/01 12:59:13;;;;;;;0.10;0.10;;;3.80;99.90;;;;;;4964182;28;20071;-87
2022/04/01 13:01:41;;;;;;;0.40;0.40;;;3.80;99.90;;;;;;4948023;28;20042;-82
2022/04/01 13:04:19;;;;;;;0.40;0.40;;;3.80;99.90;;;;;;4963794;28;20055;-80
2022/04/01 13:07:09;;;;;;;2.60;1.10;;;3.90;99.90;;;;;;4964667;28;20043;-90
2022/04/01 13:10:00;;;;;;;0.20;0.20;;;4.00;99.90;;;;;;4965317;28;20078;-84
2022/04/01 13:12:28;;;;;;;8.93;1.70;;;4.10;99.90;;;;;;4965237;28;20039;-82
2022/04/01 13:15:08;;;;;;;1.00;0.43;;;4.20;99.90;;;;;;4996625;28;20550;-86
2022/04/01 13:17:46;;;;;;;0.53;0.47;;;4.30;99.90;;;;;;5005692;28;20119;-96
2022/04/01 13:20:13;;;;;;;2.53;0.60;;;4.40;99.90;;;;;;5002282;28;20042;-86